sensor_id;sensor_type;location;lat;lon;timestamp;P1;durP1;ratioP1;P2;durP2;ratioP2
5117;SDS011;2578;51.622;7.046;2023-02-22T00:00:27;7.07;;;6.47;;
5117;SDS011;2578;51.622;7.046;2023-02-22T00:03:16;16.73;;;8.83;;
5117;SDS011;2578;51.622;7.046;2023-02-22T00:05:49;10.20;;;6.67;;
5117;SDS011;2578;51.622;7.046;2023-02-22T00:08:27;8.90;;;8.20;;
5117;SDS011;2578;51.622;7.046;2023-02-22T00:10:57;34.70;;;7.90;;
5117;SDS011;2578;51.622;7.046;2023-02-22T00:13:24;8.20;;;7.40;;
5117;SDS011;2578;51.622;7.046;2023-02-22T00:15:49;7.50;;;6.57;;
5117;SDS011;2578;51.622;7.046;2023-02-22T00:18:16;13.30;;;7.33;;
5117;SDS011;2578;51.622;7.046;2023-02-22T00:20:43;9.07;;;7.20;;
5117;SDS011;2578;51.622;7.046;2023-02-22T00:23:13;18.73;;;11.33;;
5117;SDS011;2578;51.622;7.046;2023-02-22T00:25:46;6.57;;;6.07;;
5117;SDS011;2578;51.622;7.046;2023-02-22T00:28:13;14.10;;;7.00;;
5117;SDS011;2578;51.622;7.046;2023-02-22T00:30:39;10.87;;;9.70;;
5117;SDS011;2578;51.622;7.046;2023-02-22T00:33:07;6.63;;;6.13;;
5117;SDS011;2578;51.622;7.046;2023-02-22T00:35:34;59.70;;;8.03;;
5117;SDS011;2578;51.622;7.046;2023-02-22T00:38:00;5.53;;;5.13;;
5117;SDS011;2578;51.622;7.046;2023-02-22T00:40:27;5.77;;;5.37;;
5117;SDS011;2578;51.622;7.046;2023-02-22T00:42:55;6.00;;;5.60;;
5117;SDS011;2578;51.622;7.046;2023-02-22T00:45:22;6.50;;;6.00;;
5117;SDS011;2578;51.622;7.046;2023-02-22T00:47:50;6.87;;;6.37;;
5117;SDS011;2578;51.622;7.046;2023-02-22T00:50:19;7.13;;;6.53;;
5117;SDS011;2578;51.622;7.046;2023-02-22T00:52:45;6.00;;;5.60;;
5117;SDS011;2578;51.622;7.046;2023-02-22T00:55:16;6.60;;;6.10;;
5117;SDS011;2578;51.622;7.046;2023-02-22T00:57:43;6.50;;;6.00;;
5117;SDS011;2578;51.622;7.046;2023-02-22T01:00:13;6.80;;;6.30;;
5117;SDS011;2578;51.622;7.046;2023-02-22T01:02:44;7.40;;;6.90;;
5117;SDS011;2578;51.622;7.046;2023-02-22T01:05:11;7.33;;;6.83;;
5117;SDS011;2578;51.622;7.046;2023-02-22T01:07:38;7.30;;;6.80;;
5117;SDS011;2578;51.622;7.046;2023-02-22T01:10:05;8.77;;;8.17;;
5117;SDS011;2578;51.622;7.046;2023-02-22T01:12:32;7.30;;;6.80;;
5117;SDS011;2578;51.622;7.046;2023-02-22T01:14:58;7.87;;;7.37;;
5117;SDS011;2578;51.622;7.046;2023-02-22T01:17:24;7.90;;;7.30;;
5117;SDS011;2578;51.622;7.046;2023-02-22T01:19:51;6.20;;;5.80;;
5117;SDS011;2578;51.622;7.046;2023-02-22T01:22:18;6.30;;;5.80;;
5117;SDS011;2578;51.622;7.046;2023-02-22T01:24:45;6.60;;;6.10;;
5117;SDS011;2578;51.622;7.046;2023-02-22T01:27:15;6.47;;;6.00;;
5117;SDS011;2578;51.622;7.046;2023-02-22T01:29:41;17.53;;;10.13;;
5117;SDS011;2578;51.622;7.046;2023-02-22T01:32:07;6.30;;;5.80;;
5117;SDS011;2578;51.622;7.046;2023-02-22T01:34:32;6.40;;;5.90;;
5117;SDS011;2578;51.622;7.046;2023-02-22T01:36:59;6.10;;;5.70;;
5117;SDS011;2578;51.622;7.046;2023-02-22T01:39:25;5.77;;;5.37;;
5117;SDS011;2578;51.622;7.046;2023-02-22T01:41:51;5.80;;;5.40;;
5117;SDS011;2578;51.622;7.046;2023-02-22T01:44:25;5.43;;;5.03;;
5117;SDS011;2578;51.622;7.046;2023-02-22T01:47:00;5.27;;;4.87;;
5117;SDS011;2578;51.622;7.046;2023-02-22T01:49:29;5.43;;;5.03;;
5117;SDS011;2578;51.622;7.046;2023-02-22T01:51:57;11.27;;;6.93;;
5117;SDS011;2578;51.622;7.046;2023-02-22T01:54:32;5.20;;;4.80;;
5117;SDS011;2578;51.622;7.046;2023-02-22T01:57:04;17.87;;;6.77;;
5117;SDS011;2578;51.622;7.046;2023-02-22T01:59:36;4.70;;;4.27;;
5117;SDS011;2578;51.622;7.046;2023-02-22T02:02:04;4.00;;;3.60;;
5117;SDS011;2578;51.622;7.046;2023-02-22T02:04:31;4.10;;;3.70;;
5117;SDS011;2578;51.622;7.046;2023-02-22T02:07:02;4.20;;;3.80;;
5117;SDS011;2578;51.622;7.046;2023-02-22T02:12:07;4.07;;;3.67;;
5117;SDS011;2578;51.622;7.046;2023-02-22T02:14:35;4.00;;;3.60;;
5117;SDS011;2578;51.622;7.046;2023-02-22T02:17:05;4.27;;;3.87;;
5117;SDS011;2578;51.622;7.046;2023-02-22T02:25:22;9.63;;;6.20;;
5117;SDS011;2578;51.622;7.046;2023-02-22T02:31:02;5.00;;;4.50;;
5117;SDS011;2578;51.622;7.046;2023-02-22T02:34:31;9.73;;;4.77;;
5117;SDS011;2578;51.622;7.046;2023-02-22T02:37:45;6.20;;;5.60;;
5117;SDS011;2578;51.622;7.046;2023-02-22T02:42:49;4.60;;;4.20;;
5117;SDS011;2578;51.622;7.046;2023-02-22T02:45:34;7.37;;;6.77;;
5117;SDS011;2578;51.622;7.046;2023-02-22T02:48:05;4.90;;;4.40;;
5117;SDS011;2578;51.622;7.046;2023-02-22T02:50:54;7.30;;;6.50;;
5117;SDS011;2578;51.622;7.046;2023-02-22T02:53:26;7.40;;;6.70;;
5117;SDS011;2578;51.622;7.046;2023-02-22T02:55:58;10.43;;;6.90;;
5117;SDS011;2578;51.622;7.046;2023-02-22T02:58:24;12.70;;;8.30;;
5117;SDS011;2578;51.622;7.046;2023-02-22T03:00:51;6.17;;;5.57;;
5117;SDS011;2578;51.622;7.046;2023-02-22T03:08:44;13.30;;;7.93;;
5117;SDS011;2578;51.622;7.046;2023-02-22T03:11:25;7.33;;;6.73;;
5117;SDS011;2578;51.622;7.046;2023-02-22T03:14:03;13.53;;;8.20;;
5117;SDS011;2578;51.622;7.046;2023-02-22T03:17:24;7.70;;;7.10;;
5117;SDS011;2578;51.622;7.046;2023-02-22T03:22:17;6.50;;;6.00;;
5117;SDS011;2578;51.622;7.046;2023-02-22T03:24:56;6.20;;;5.70;;
5117;SDS011;2578;51.622;7.046;2023-02-22T03:30:08;6.60;;;6.10;;
5117;SDS011;2578;51.622;7.046;2023-02-22T03:32:37;6.90;;;6.40;;
5117;SDS011;2578;51.622;7.046;2023-02-22T03:35:18;20.33;;;5.97;;
5117;SDS011;2578;51.622;7.046;2023-02-22T03:37:48;6.40;;;5.90;;
5117;SDS011;2578;51.622;7.046;2023-02-22T03:40:22;6.93;;;6.33;;
5117;SDS011;2578;51.622;7.046;2023-02-22T03:42:53;6.33;;;5.83;;
5117;SDS011;2578;51.622;7.046;2023-02-22T03:45:24;8.20;;;6.53;;
5117;SDS011;2578;51.622;7.046;2023-02-22T03:47:57;8.50;;;6.57;;
5117;SDS011;2578;51.622;7.046;2023-02-22T03:50:29;10.80;;;9.90;;
5117;SDS011;2578;51.622;7.046;2023-02-22T03:52:59;6.90;;;6.40;;
5117;SDS011;2578;51.622;7.046;2023-02-22T03:55:25;6.37;;;5.87;;
5117;SDS011;2578;51.622;7.046;2023-02-22T03:57:59;25.67;;;7.83;;
5117;SDS011;2578;51.622;7.046;2023-02-22T04:00:30;8.20;;;7.40;;
5117;SDS011;2578;51.622;7.046;2023-02-22T04:02:57;7.43;;;6.83;;
5117;SDS011;2578;51.622;7.046;2023-02-22T04:05:23;7.63;;;6.77;;
5117;SDS011;2578;51.622;7.046;2023-02-22T04:07:53;6.70;;;6.20;;
5117;SDS011;2578;51.622;7.046;2023-02-22T04:10:20;7.80;;;7.23;;
5117;SDS011;2578;51.622;7.046;2023-02-22T04:12:46;7.63;;;6.87;;
5117;SDS011;2578;51.622;7.046;2023-02-22T04:15:13;6.70;;;6.20;;
5117;SDS011;2578;51.622;7.046;2023-02-22T04:17:40;10.77;;;9.90;;
5117;SDS011;2578;51.622;7.046;2023-02-22T04:20:06;8.13;;;7.50;;
5117;SDS011;2578;51.622;7.046;2023-02-22T04:22:33;6.90;;;6.40;;
5117;SDS011;2578;51.622;7.046;2023-02-22T04:24:58;7.63;;;7.13;;
5117;SDS011;2578;51.622;7.046;2023-02-22T04:27:24;7.20;;;6.70;;
5117;SDS011;2578;51.622;7.046;2023-02-22T04:29:50;7.10;;;6.60;;
5117;SDS011;2578;51.622;7.046;2023-02-22T04:32:15;7.10;;;6.60;;
5117;SDS011;2578;51.622;7.046;2023-02-22T04:34:41;7.63;;;7.13;;
5117;SDS011;2578;51.622;7.046;2023-02-22T04:37:06;6.73;;;6.23;;
5117;SDS011;2578;51.622;7.046;2023-02-22T04:39:34;6.90;;;6.40;;
5117;SDS011;2578;51.622;7.046;2023-02-22T04:41:59;7.10;;;6.60;;
5117;SDS011;2578;51.622;7.046;2023-02-22T04:44:25;7.50;;;7.00;;
5117;SDS011;2578;51.622;7.046;2023-02-22T04:46:51;7.30;;;6.80;;
5117;SDS011;2578;51.622;7.046;2023-02-22T04:49:16;10.00;;;6.53;;
5117;SDS011;2578;51.622;7.046;2023-02-22T04:51:42;9.23;;;8.03;;
5117;SDS011;2578;51.622;7.046;2023-02-22T04:54:07;9.10;;;8.50;;
5117;SDS011;2578;51.622;7.046;2023-02-22T04:56:33;9.70;;;9.10;;
5117;SDS011;2578;51.622;7.046;2023-02-22T04:58:59;9.83;;;9.23;;
5117;SDS011;2578;51.622;7.046;2023-02-22T05:01:24;9.43;;;8.83;;
5117;SDS011;2578;51.622;7.046;2023-02-22T05:03:54;10.70;;;10.10;;
5117;SDS011;2578;51.622;7.046;2023-02-22T05:06:19;9.53;;;8.93;;
5117;SDS011;2578;51.622;7.046;2023-02-22T05:08:45;9.00;;;8.40;;
5117;SDS011;2578;51.622;7.046;2023-02-22T05:11:11;9.10;;;8.50;;
5117;SDS011;2578;51.622;7.046;2023-02-22T05:13:36;9.00;;;8.40;;
5117;SDS011;2578;51.622;7.046;2023-02-22T05:16:02;9.60;;;9.00;;
5117;SDS011;2578;51.622;7.046;2023-02-22T05:18:28;11.03;;;10.33;;
5117;SDS011;2578;51.622;7.046;2023-02-22T05:20:53;9.50;;;8.90;;
5117;SDS011;2578;51.622;7.046;2023-02-22T05:23:19;9.60;;;9.00;;
5117;SDS011;2578;51.622;7.046;2023-02-22T05:25:45;11.73;;;10.50;;
5117;SDS011;2578;51.622;7.046;2023-02-22T05:28:11;10.20;;;9.60;;
5117;SDS011;2578;51.622;7.046;2023-02-22T05:30:38;10.30;;;9.70;;
5117;SDS011;2578;51.622;7.046;2023-02-22T05:33:04;10.83;;;10.03;;
5117;SDS011;2578;51.622;7.046;2023-02-22T05:35:30;10.70;;;10.00;;
5117;SDS011;2578;51.622;7.046;2023-02-22T05:37:56;14.87;;;13.40;;
5117;SDS011;2578;51.622;7.046;2023-02-22T05:40:24;12.00;;;11.20;;
5117;SDS011;2578;51.622;7.046;2023-02-22T05:42:51;11.20;;;10.50;;
5117;SDS011;2578;51.622;7.046;2023-02-22T05:45:18;11.53;;;10.47;;
5117;SDS011;2578;51.622;7.046;2023-02-22T05:47:45;11.23;;;10.43;;
5117;SDS011;2578;51.622;7.046;2023-02-22T05:50:11;9.57;;;8.97;;
5117;SDS011;2578;51.622;7.046;2023-02-22T05:52:38;10.13;;;9.53;;
5117;SDS011;2578;51.622;7.046;2023-02-22T05:55:04;10.40;;;9.70;;
5117;SDS011;2578;51.622;7.046;2023-02-22T05:57:31;11.30;;;10.60;;
5117;SDS011;2578;51.622;7.046;2023-02-22T05:59:58;15.30;;;10.93;;
5117;SDS011;2578;51.622;7.046;2023-02-22T06:02:23;11.47;;;10.77;;
5117;SDS011;2578;51.622;7.046;2023-02-22T06:04:49;13.23;;;11.60;;
5117;SDS011;2578;51.622;7.046;2023-02-22T06:07:15;9.90;;;9.30;;
5117;SDS011;2578;51.622;7.046;2023-02-22T06:09:41;9.33;;;8.73;;
5117;SDS011;2578;51.622;7.046;2023-02-22T06:12:07;11.03;;;10.33;;
5117;SDS011;2578;51.622;7.046;2023-02-22T06:14:33;11.83;;;10.90;;
5117;SDS011;2578;51.622;7.046;2023-02-22T06:16:59;10.50;;;9.90;;
5117;SDS011;2578;51.622;7.046;2023-02-22T06:19:26;11.10;;;10.40;;
5117;SDS011;2578;51.622;7.046;2023-02-22T06:21:55;9.83;;;9.23;;
5117;SDS011;2578;51.622;7.046;2023-02-22T06:24:24;10.17;;;9.57;;
5117;SDS011;2578;51.622;7.046;2023-02-22T06:26:53;11.53;;;10.70;;
5117;SDS011;2578;51.622;7.046;2023-02-22T06:29:28;10.10;;;9.50;;
5117;SDS011;2578;51.622;7.046;2023-02-22T06:31:54;11.97;;;11.07;;
5117;SDS011;2578;51.622;7.046;2023-02-22T06:34:19;11.30;;;9.50;;
5117;SDS011;2578;51.622;7.046;2023-02-22T06:36:46;10.73;;;10.03;;
5117;SDS011;2578;51.622;7.046;2023-02-22T06:39:13;10.63;;;9.93;;
5117;SDS011;2578;51.622;7.046;2023-02-22T06:41:42;10.03;;;9.43;;
5117;SDS011;2578;51.622;7.046;2023-02-22T06:44:09;10.10;;;9.50;;
5117;SDS011;2578;51.622;7.046;2023-02-22T06:46:36;13.17;;;12.07;;
5117;SDS011;2578;51.622;7.046;2023-02-22T06:49:03;11.93;;;11.07;;
5117;SDS011;2578;51.622;7.046;2023-02-22T06:51:29;12.20;;;11.23;;
5117;SDS011;2578;51.622;7.046;2023-02-22T06:53:59;13.07;;;12.03;;
5117;SDS011;2578;51.622;7.046;2023-02-22T06:56:24;10.20;;;9.60;;
5117;SDS011;2578;51.622;7.046;2023-02-22T06:58:50;10.27;;;9.67;;
5117;SDS011;2578;51.622;7.046;2023-02-22T07:01:16;11.40;;;10.70;;
5117;SDS011;2578;51.622;7.046;2023-02-22T07:03:41;10.90;;;10.20;;
5117;SDS011;2578;51.622;7.046;2023-02-22T07:06:07;11.37;;;10.60;;
5117;SDS011;2578;51.622;7.046;2023-02-22T07:08:33;11.63;;;10.93;;
5117;SDS011;2578;51.622;7.046;2023-02-22T07:10:58;12.47;;;11.47;;
5117;SDS011;2578;51.622;7.046;2023-02-22T07:13:24;13.13;;;12.20;;
5117;SDS011;2578;51.622;7.046;2023-02-22T07:15:49;11.50;;;10.70;;
5117;SDS011;2578;51.622;7.046;2023-02-22T07:18:15;11.03;;;10.33;;
5117;SDS011;2578;51.622;7.046;2023-02-22T07:20:41;10.57;;;9.87;;
5117;SDS011;2578;51.622;7.046;2023-02-22T07:23:06;12.37;;;11.17;;
5117;SDS011;2578;51.622;7.046;2023-02-22T07:25:32;11.77;;;10.87;;
5117;SDS011;2578;51.622;7.046;2023-02-22T07:27:58;13.30;;;12.20;;
5117;SDS011;2578;51.622;7.046;2023-02-22T07:30:31;15.13;;;13.80;;
5117;SDS011;2578;51.622;7.046;2023-02-22T07:33:02;10.70;;;10.00;;
5117;SDS011;2578;51.622;7.046;2023-02-22T07:35:32;12.07;;;11.00;;
5117;SDS011;2578;51.622;7.046;2023-02-22T07:38:18;10.53;;;9.73;;
5117;SDS011;2578;51.622;7.046;2023-02-22T07:40:45;10.50;;;9.80;;
5117;SDS011;2578;51.622;7.046;2023-02-22T07:45:44;13.07;;;11.43;;
5117;SDS011;2578;51.622;7.046;2023-02-22T07:48:10;9.77;;;9.07;;
5117;SDS011;2578;51.622;7.046;2023-02-22T07:50:36;15.43;;;10.00;;
5117;SDS011;2578;51.622;7.046;2023-02-22T07:53:04;8.77;;;8.17;;
5117;SDS011;2578;51.622;7.046;2023-02-22T07:55:32;8.90;;;8.30;;
5117;SDS011;2578;51.622;7.046;2023-02-22T07:57:59;10.43;;;9.73;;
5117;SDS011;2578;51.622;7.046;2023-02-22T08:00:31;9.80;;;9.10;;
5117;SDS011;2578;51.622;7.046;2023-02-22T08:03:02;16.43;;;10.57;;
5117;SDS011;2578;51.622;7.046;2023-02-22T08:05:29;10.57;;;9.83;;
5117;SDS011;2578;51.622;7.046;2023-02-22T08:07:56;9.40;;;8.70;;
5117;SDS011;2578;51.622;7.046;2023-02-22T08:10:22;8.90;;;8.30;;
5117;SDS011;2578;51.622;7.046;2023-02-22T08:12:49;8.90;;;8.30;;
5117;SDS011;2578;51.622;7.046;2023-02-22T08:15:20;10.80;;;8.33;;
5117;SDS011;2578;51.622;7.046;2023-02-22T08:17:50;8.63;;;8.03;;
5117;SDS011;2578;51.622;7.046;2023-02-22T08:20:17;9.07;;;8.47;;
5117;SDS011;2578;51.622;7.046;2023-02-22T08:22:43;10.53;;;9.50;;
5117;SDS011;2578;51.622;7.046;2023-02-22T08:25:09;8.77;;;8.17;;
5117;SDS011;2578;51.622;7.046;2023-02-22T08:27:36;10.87;;;10.10;;
5117;SDS011;2578;51.622;7.046;2023-02-22T08:30:01;9.10;;;8.50;;
5117;SDS011;2578;51.622;7.046;2023-02-22T08:32:27;10.53;;;9.83;;
5117;SDS011;2578;51.622;7.046;2023-02-22T08:34:53;10.00;;;9.30;;
5117;SDS011;2578;51.622;7.046;2023-02-22T08:37:19;10.20;;;9.40;;
5117;SDS011;2578;51.622;7.046;2023-02-22T08:39:44;13.63;;;10.73;;
5117;SDS011;2578;51.622;7.046;2023-02-22T08:42:10;10.63;;;9.83;;
5117;SDS011;2578;51.622;7.046;2023-02-22T08:44:36;14.27;;;12.97;;
5117;SDS011;2578;51.622;7.046;2023-02-22T08:47:03;11.13;;;10.33;;
5117;SDS011;2578;51.622;7.046;2023-02-22T08:49:30;9.40;;;8.80;;
5117;SDS011;2578;51.622;7.046;2023-02-22T08:51:56;9.97;;;9.30;;
5117;SDS011;2578;51.622;7.046;2023-02-22T08:54:22;9.53;;;8.83;;
5117;SDS011;2578;51.622;7.046;2023-02-22T08:56:48;10.37;;;9.57;;
5117;SDS011;2578;51.622;7.046;2023-02-22T08:59:14;9.17;;;8.57;;
5117;SDS011;2578;51.622;7.046;2023-02-22T09:01:40;14.20;;;10.10;;
5117;SDS011;2578;51.622;7.046;2023-02-22T09:04:05;10.00;;;9.30;;
5117;SDS011;2578;51.622;7.046;2023-02-22T09:06:31;9.97;;;9.17;;
5117;SDS011;2578;51.622;7.046;2023-02-22T09:08:57;10.30;;;9.60;;
5117;SDS011;2578;51.622;7.046;2023-02-22T09:11:22;11.90;;;10.90;;
5117;SDS011;2578;51.622;7.046;2023-02-22T09:13:48;12.50;;;11.50;;
5117;SDS011;2578;51.622;7.046;2023-02-22T09:16:14;11.50;;;10.70;;
5117;SDS011;2578;51.622;7.046;2023-02-22T09:18:39;10.33;;;9.60;;
5117;SDS011;2578;51.622;7.046;2023-02-22T09:21:05;11.00;;;10.20;;
5117;SDS011;2578;51.622;7.046;2023-02-22T09:23:30;12.57;;;11.47;;
5117;SDS011;2578;51.622;7.046;2023-02-22T09:25:56;10.70;;;9.80;;
5117;SDS011;2578;51.622;7.046;2023-02-22T09:28:24;11.60;;;10.40;;
5117;SDS011;2578;51.622;7.046;2023-02-22T09:30:50;9.93;;;9.23;;
5117;SDS011;2578;51.622;7.046;2023-02-22T09:33:18;10.43;;;9.50;;
5117;SDS011;2578;51.622;7.046;2023-02-22T09:35:45;10.23;;;8.40;;
5117;SDS011;2578;51.622;7.046;2023-02-22T09:38:14;11.13;;;10.33;;
5117;SDS011;2578;51.622;7.046;2023-02-22T09:40:43;12.37;;;11.47;;
5117;SDS011;2578;51.622;7.046;2023-02-22T09:51:24;5.60;;;5.10;;
5117;SDS011;2578;51.622;7.046;2023-02-22T09:53:54;5.93;;;5.43;;
5117;SDS011;2578;51.622;7.046;2023-02-22T09:56:23;9.37;;;8.60;;
5117;SDS011;2578;51.622;7.046;2023-02-22T09:58:53;14.80;;;13.90;;
5117;SDS011;2578;51.622;7.046;2023-02-22T10:09:21;28.70;;;26.80;;
5117;SDS011;2578;51.622;7.046;2023-02-22T10:11:55;30.50;;;28.40;;
5117;SDS011;2578;51.622;7.046;2023-02-22T10:14:36;33.97;;;31.57;;
5117;SDS011;2578;51.622;7.046;2023-02-22T10:23:16;50.33;;;46.23;;
5117;SDS011;2578;51.622;7.046;2023-02-22T10:26:13;48.97;;;44.87;;
5117;SDS011;2578;51.622;7.046;2023-02-22T10:28:44;54.60;;;50.40;;
5117;SDS011;2578;51.622;7.046;2023-02-22T10:31:45;24.60;;;22.60;;
5117;SDS011;2578;51.622;7.046;2023-02-22T10:34:17;22.83;;;21.23;;
5117;SDS011;2578;51.622;7.046;2023-02-22T10:36:48;20.97;;;19.67;;
5117;SDS011;2578;51.622;7.046;2023-02-22T10:41:54;13.37;;;12.57;;
5117;SDS011;2578;51.622;7.046;2023-02-22T10:44:21;14.03;;;13.23;;
5117;SDS011;2578;51.622;7.046;2023-02-22T10:46:47;15.13;;;14.07;;
5117;SDS011;2578;51.622;7.046;2023-02-22T10:49:17;16.00;;;14.80;;
5117;SDS011;2578;51.622;7.046;2023-02-22T10:51:59;14.40;;;13.50;;
5117;SDS011;2578;51.622;7.046;2023-02-22T10:54:44;15.13;;;14.13;;
5117;SDS011;2578;51.622;7.046;2023-02-22T10:57:12;15.40;;;14.10;;
5117;SDS011;2578;51.622;7.046;2023-02-22T10:59:38;14.87;;;13.87;;
5117;SDS011;2578;51.622;7.046;2023-02-22T11:02:17;15.97;;;14.87;;
5117;SDS011;2578;51.622;7.046;2023-02-22T11:04:52;16.57;;;15.47;;
5117;SDS011;2578;51.622;7.046;2023-02-22T11:17:48;18.27;;;16.97;;
5117;SDS011;2578;51.622;7.046;2023-02-22T11:22:49;18.70;;;17.40;;
5117;SDS011;2578;51.622;7.046;2023-02-22T11:25:23;19.90;;;18.40;;
5117;SDS011;2578;51.622;7.046;2023-02-22T11:27:51;20.40;;;18.80;;
5117;SDS011;2578;51.622;7.046;2023-02-22T11:30:26;22.50;;;20.70;;
5117;SDS011;2578;51.622;7.046;2023-02-22T11:32:57;22.93;;;20.90;;
5117;SDS011;2578;51.622;7.046;2023-02-22T11:37:52;22.70;;;21.10;;
5117;SDS011;2578;51.622;7.046;2023-02-22T11:40:32;25.90;;;23.80;;
5117;SDS011;2578;51.622;7.046;2023-02-22T11:43:07;24.13;;;22.33;;
5117;SDS011;2578;51.622;7.046;2023-02-22T11:45:37;24.20;;;22.30;;
5117;SDS011;2578;51.622;7.046;2023-02-22T11:48:04;25.50;;;23.60;;
5117;SDS011;2578;51.622;7.046;2023-02-22T11:50:35;26.67;;;24.57;;
5117;SDS011;2578;51.622;7.046;2023-02-22T12:01:38;30.73;;;28.23;;
5117;SDS011;2578;51.622;7.046;2023-02-22T12:04:28;30.10;;;27.60;;
5117;SDS011;2578;51.622;7.046;2023-02-22T12:18:24;33.17;;;30.47;;
5117;SDS011;2578;51.622;7.046;2023-02-22T12:21:06;33.70;;;30.90;;
5117;SDS011;2578;51.622;7.046;2023-02-22T12:23:53;33.97;;;31.07;;
5117;SDS011;2578;51.622;7.046;2023-02-22T12:26:38;31.53;;;29.03;;
5117;SDS011;2578;51.622;7.046;2023-02-22T12:34:40;31.90;;;29.40;;
5117;SDS011;2578;51.622;7.046;2023-02-22T12:40:15;32.67;;;30.07;;
5117;SDS011;2578;51.622;7.046;2023-02-22T12:45:23;30.47;;;27.97;;
5117;SDS011;2578;51.622;7.046;2023-02-22T12:47:59;29.20;;;26.80;;
5117;SDS011;2578;51.622;7.046;2023-02-22T12:51:01;31.43;;;28.93;;
5117;SDS011;2578;51.622;7.046;2023-02-22T12:53:51;30.70;;;28.10;;
5117;SDS011;2578;51.622;7.046;2023-02-22T12:58:56;32.97;;;30.27;;
5117;SDS011;2578;51.622;7.046;2023-02-22T13:01:25;31.10;;;28.50;;
5117;SDS011;2578;51.622;7.046;2023-02-22T13:03:58;32.10;;;29.40;;
5117;SDS011;2578;51.622;7.046;2023-02-22T13:07:07;30.77;;;28.27;;
5117;SDS011;2578;51.622;7.046;2023-02-22T13:09:47;31.73;;;28.93;;
5117;SDS011;2578;51.622;7.046;2023-02-22T13:14:54;32.00;;;29.30;;
5117;SDS011;2578;51.622;7.046;2023-02-22T13:23:09;30.73;;;28.23;;
5117;SDS011;2578;51.622;7.046;2023-02-22T13:25:53;30.80;;;28.30;;
5117;SDS011;2578;51.622;7.046;2023-02-22T13:34:49;29.90;;;27.43;;
5117;SDS011;2578;51.622;7.046;2023-02-22T13:52:57;30.90;;;28.20;;
5117;SDS011;2578;51.622;7.046;2023-02-22T13:55:28;31.70;;;29.10;;
5117;SDS011;2578;51.622;7.046;2023-02-22T13:58:08;32.97;;;30.27;;
5117;SDS011;2578;51.622;7.046;2023-02-22T14:10:47;34.37;;;31.57;;
5117;SDS011;2578;51.622;7.046;2023-02-22T14:13:15;32.67;;;30.17;;
5117;SDS011;2578;51.622;7.046;2023-02-22T14:18:24;33.63;;;31.13;;
5117;SDS011;2578;51.622;7.046;2023-02-22T14:21:03;31.27;;;28.87;;
5117;SDS011;2578;51.622;7.046;2023-02-22T14:26:15;40.43;;;30.10;;
5117;SDS011;2578;51.622;7.046;2023-02-22T14:28:57;34.87;;;32.17;;
5117;SDS011;2578;51.622;7.046;2023-02-22T14:39:21;33.47;;;30.87;;
5117;SDS011;2578;51.622;7.046;2023-02-22T14:42:01;33.10;;;30.50;;
5117;SDS011;2578;51.622;7.046;2023-02-22T14:47:42;31.00;;;28.30;;
5117;SDS011;2578;51.622;7.046;2023-02-22T14:50:26;31.20;;;28.70;;
5117;SDS011;2578;51.622;7.046;2023-02-22T14:55:44;30.10;;;27.60;;
5117;SDS011;2578;51.622;7.046;2023-02-22T15:06:46;32.40;;;30.00;;
5117;SDS011;2578;51.622;7.046;2023-02-22T15:11:48;33.97;;;31.47;;
5117;SDS011;2578;51.622;7.046;2023-02-22T15:14:20;33.20;;;30.70;;
5117;SDS011;2578;51.622;7.046;2023-02-22T15:16:50;29.77;;;27.57;;
5117;SDS011;2578;51.622;7.046;2023-02-22T15:19:21;35.00;;;32.50;;
5117;SDS011;2578;51.622;7.046;2023-02-22T15:21:51;26.90;;;24.90;;
5117;SDS011;2578;51.622;7.046;2023-02-22T15:24:28;29.30;;;27.00;;
5117;SDS011;2578;51.622;7.046;2023-02-22T15:27:09;29.50;;;27.30;;
5117;SDS011;2578;51.622;7.046;2023-02-22T15:29:41;28.27;;;25.70;;
5117;SDS011;2578;51.622;7.046;2023-02-22T15:35:31;27.00;;;25.00;;
5117;SDS011;2578;51.622;7.046;2023-02-22T15:38:02;27.17;;;25.00;;
5117;SDS011;2578;51.622;7.046;2023-02-22T15:40:27;24.50;;;22.60;;
5117;SDS011;2578;51.622;7.046;2023-02-22T15:42:59;23.40;;;21.60;;
5117;SDS011;2578;51.622;7.046;2023-02-22T15:45:29;24.23;;;22.33;;
5117;SDS011;2578;51.622;7.046;2023-02-22T15:47:58;25.10;;;23.10;;
5117;SDS011;2578;51.622;7.046;2023-02-22T15:50:25;23.17;;;21.47;;
5117;SDS011;2578;51.622;7.046;2023-02-22T15:52:59;22.60;;;20.90;;
5117;SDS011;2578;51.622;7.046;2023-02-22T15:55:31;22.13;;;20.53;;
5117;SDS011;2578;51.622;7.046;2023-02-22T15:58:06;22.90;;;21.20;;
5117;SDS011;2578;51.622;7.046;2023-02-22T16:00:37;22.00;;;20.40;;
5117;SDS011;2578;51.622;7.046;2023-02-22T16:03:08;21.53;;;19.93;;
5117;SDS011;2578;51.622;7.046;2023-02-22T16:05:44;21.63;;;20.03;;
5117;SDS011;2578;51.622;7.046;2023-02-22T16:08:14;21.37;;;19.87;;
5117;SDS011;2578;51.622;7.046;2023-02-22T16:11:07;20.00;;;18.60;;
5117;SDS011;2578;51.622;7.046;2023-02-22T16:13:37;21.13;;;19.53;;
5117;SDS011;2578;51.622;7.046;2023-02-22T16:16:19;19.80;;;18.40;;
5117;SDS011;2578;51.622;7.046;2023-02-22T16:18:47;19.80;;;18.40;;
5117;SDS011;2578;51.622;7.046;2023-02-22T16:21:14;19.10;;;17.80;;
5117;SDS011;2578;51.622;7.046;2023-02-22T16:23:45;19.30;;;18.00;;
5117;SDS011;2578;51.622;7.046;2023-02-22T16:26:25;19.73;;;18.43;;
5117;SDS011;2578;51.622;7.046;2023-02-22T16:28:53;19.30;;;17.90;;
5117;SDS011;2578;51.622;7.046;2023-02-22T16:31:20;19.27;;;17.97;;
5117;SDS011;2578;51.622;7.046;2023-02-22T16:33:49;17.90;;;16.70;;
5117;SDS011;2578;51.622;7.046;2023-02-22T16:36:15;18.37;;;16.97;;
5117;SDS011;2578;51.622;7.046;2023-02-22T16:38:43;16.93;;;15.83;;
5117;SDS011;2578;51.622;7.046;2023-02-22T16:41:12;16.90;;;15.80;;
5117;SDS011;2578;51.622;7.046;2023-02-22T16:43:43;16.97;;;15.87;;
5117;SDS011;2578;51.622;7.046;2023-02-22T16:46:11;17.90;;;16.37;;
5117;SDS011;2578;51.622;7.046;2023-02-22T16:48:38;16.50;;;15.40;;
5117;SDS011;2578;51.622;7.046;2023-02-22T16:51:16;14.40;;;13.50;;
5117;SDS011;2578;51.622;7.046;2023-02-22T16:53:49;14.00;;;13.10;;
5117;SDS011;2578;51.622;7.046;2023-02-22T16:56:17;14.10;;;13.20;;
5117;SDS011;2578;51.622;7.046;2023-02-22T16:58:44;14.10;;;13.20;;
5117;SDS011;2578;51.622;7.046;2023-02-22T17:01:11;14.13;;;13.23;;
5117;SDS011;2578;51.622;7.046;2023-02-22T17:03:37;13.73;;;12.93;;
5117;SDS011;2578;51.622;7.046;2023-02-22T17:06:02;13.10;;;12.30;;
5117;SDS011;2578;51.622;7.046;2023-02-22T17:08:29;14.30;;;13.10;;
5117;SDS011;2578;51.622;7.046;2023-02-22T17:10:55;13.70;;;12.90;;
5117;SDS011;2578;51.622;7.046;2023-02-22T17:13:25;12.00;;;11.30;;
5117;SDS011;2578;51.622;7.046;2023-02-22T17:15:51;13.80;;;12.90;;
5117;SDS011;2578;51.622;7.046;2023-02-22T17:18:19;10.73;;;10.10;;
5117;SDS011;2578;51.622;7.046;2023-02-22T17:20:48;12.10;;;11.20;;
5117;SDS011;2578;51.622;7.046;2023-02-22T17:23:15;10.00;;;9.40;;
5117;SDS011;2578;51.622;7.046;2023-02-22T17:25:47;10.47;;;9.87;;
5117;SDS011;2578;51.622;7.046;2023-02-22T17:28:20;10.10;;;9.50;;
5117;SDS011;2578;51.622;7.046;2023-02-22T17:30:48;10.87;;;10.20;;
5117;SDS011;2578;51.622;7.046;2023-02-22T17:33:16;10.20;;;9.60;;
5117;SDS011;2578;51.622;7.046;2023-02-22T17:35:44;11.17;;;10.17;;
5117;SDS011;2578;51.622;7.046;2023-02-22T17:38:13;9.20;;;8.60;;
5117;SDS011;2578;51.622;7.046;2023-02-22T17:40:43;9.00;;;8.40;;
5117;SDS011;2578;51.622;7.046;2023-02-22T17:43:12;8.40;;;7.90;;
5117;SDS011;2578;51.622;7.046;2023-02-22T17:45:39;9.73;;;8.83;;
5117;SDS011;2578;51.622;7.046;2023-02-22T17:48:05;7.57;;;7.07;;
5117;SDS011;2578;51.622;7.046;2023-02-22T17:50:33;8.07;;;7.33;;
5117;SDS011;2578;51.622;7.046;2023-02-22T17:53:02;9.10;;;8.40;;
5117;SDS011;2578;51.622;7.046;2023-02-22T17:55:28;15.63;;;10.83;;
5117;SDS011;2578;51.622;7.046;2023-02-22T17:57:54;7.67;;;6.87;;
5117;SDS011;2578;51.622;7.046;2023-02-22T18:00:26;7.13;;;6.60;;
5117;SDS011;2578;51.622;7.046;2023-02-22T18:03:00;7.50;;;6.80;;
5117;SDS011;2578;51.622;7.046;2023-02-22T18:05:28;8.53;;;6.20;;
5117;SDS011;2578;51.622;7.046;2023-02-22T18:07:56;5.60;;;5.20;;
5117;SDS011;2578;51.622;7.046;2023-02-22T18:10:22;7.50;;;6.90;;
5117;SDS011;2578;51.622;7.046;2023-02-22T18:12:50;11.50;;;5.57;;